Carlton, Louisiana
Current Conditions -  °F | °C
As of 6:55 AM on Wednesday 26 Nov 2014 (Local Time) from KRSN Reporting Station
Clear Clear  
Wind Chill: 34°   Ceiling: Unl
Heat Index: 39°   Visibility: 10mi
Dew Point: 35°   Wind: 7mph
Humidity: 86%   Direction: 220°SW
Pressure: 30.17"   Gusts: NA
Location:  32.5064°N, 92.3457°W
Report Text: KRSN 261255Z AUTO 22006KT 10SM CLR 04/02 A3017 RMK AO2 T00410019
Loading
Personal Weather Stations






























Interactive Weather Map New forecast layout! Learn more

10-Day Weather Forecast

Advertisements
Track Severe Weather on mobile